createdAt,value
2019-06-26T00:01:20.756Z,11.50
2019-06-26T00:03:52.877Z,13.28
2019-06-26T00:06:25.116Z,7.55
2019-06-26T00:08:57.455Z,13.60
2019-06-26T00:11:30.170Z,12.63
2019-06-26T00:14:02.269Z,13.08
2019-06-26T00:16:34.444Z,15.78
2019-06-26T00:19:06.819Z,9.20
2019-06-26T00:21:39.023Z,12.93
2019-06-26T00:24:11.286Z,11.30
2019-06-26T00:26:43.516Z,6.05
2019-06-26T00:29:17.818Z,8.58
2019-06-26T00:31:51.490Z,11.05
2019-06-26T00:34:23.490Z,10.18
2019-06-26T00:36:55.658Z,10.80
2019-06-26T00:39:27.647Z,8.15
2019-06-26T00:42:00.142Z,13.28
2019-06-26T00:44:32.727Z,12.47
2019-06-26T00:47:05.288Z,15.48
2019-06-26T00:49:37.892Z,13.28
2019-06-26T00:52:10.078Z,12.43
2019-06-26T00:54:42.324Z,7.90
2019-06-26T00:57:14.833Z,10.55
2019-06-26T00:59:47.342Z,8.55
2019-06-26T01:02:19.602Z,7.22
2019-06-26T01:04:56.035Z,12.78
2019-06-26T01:07:28.088Z,7.50
2019-06-26T01:10:00.316Z,8.90
2019-06-26T01:12:32.637Z,7.53
2019-06-26T01:15:06.405Z,5.15
2019-06-26T01:17:38.789Z,8.45
2019-06-26T01:20:11.501Z,7.97
2019-06-26T01:22:43.550Z,7.22
2019-06-26T01:25:15.953Z,8.98
2019-06-26T01:27:48.165Z,5.50
2019-06-26T01:30:20.386Z,8.53
2019-06-26T01:32:52.474Z,7.25
2019-06-26T01:35:24.701Z,7.22
2019-06-26T01:37:56.979Z,13.93
2019-06-26T01:40:29.148Z,15.75
2019-06-26T01:43:01.428Z,12.03
2019-06-26T01:45:33.664Z,16.90
2019-06-26T01:48:06.045Z,16.80
2019-06-26T01:50:39.363Z,15.48
2019-06-26T01:53:11.590Z,13.10
2019-06-26T01:55:43.949Z,11.83
2019-06-26T01:58:17.174Z,13.65
2019-06-26T02:00:49.322Z,12.43
2019-06-26T02:03:21.584Z,13.00
2019-06-26T02:05:53.821Z,20.45
2019-06-26T02:08:26.311Z,14.58
2019-06-26T02:10:58.631Z,12.98
2019-06-26T02:13:31.322Z,23.10
2019-06-26T02:16:03.400Z,12.37
2019-06-26T02:18:40.014Z,11.73
2019-06-26T02:21:12.138Z,17.87
2019-06-26T02:23:44.507Z,13.30
2019-06-26T02:26:16.856Z,17.50
2019-06-26T02:28:50.317Z,14.93
2019-06-26T02:31:22.559Z,12.37
2019-06-26T02:33:54.789Z,20.48
2019-06-26T02:36:27.027Z,13.50
2019-06-26T02:38:59.297Z,16.95
2019-06-26T02:41:31.648Z,14.95
2019-06-26T02:44:03.835Z,10.05
2019-06-26T02:46:36.015Z,11.48
2019-06-26T02:49:08.178Z,13.53
2019-06-26T02:51:40.521Z,12.30
2019-06-26T02:54:12.746Z,9.85
2019-06-26T02:56:45.159Z,12.33
2019-06-26T02:59:17.381Z,10.88
2019-06-26T03:01:49.628Z,10.40
2019-06-26T03:04:21.779Z,6.72
2019-06-26T03:06:54.165Z,9.73
2019-06-26T03:09:26.471Z,9.95
2019-06-26T03:11:59.006Z,8.45
2019-06-26T03:14:31.505Z,10.13
2019-06-26T03:17:03.789Z,12.07
2019-06-26T03:19:36.190Z,14.45
2019-06-26T03:22:09.476Z,9.85
2019-06-26T03:24:41.708Z,14.83
2019-06-26T03:27:13.965Z,13.85
2019-06-26T03:29:46.304Z,15.75
2019-06-26T03:32:18.624Z,16.40
2019-06-26T03:34:50.817Z,12.25
2019-06-26T03:37:22.978Z,13.08
2019-06-26T03:39:55.102Z,12.68
2019-06-26T03:42:27.209Z,13.05
2019-06-26T03:44:59.471Z,17.02
2019-06-26T03:47:31.652Z,19.15
2019-06-26T03:50:05.308Z,18.02
2019-06-26T03:52:37.579Z,24.47
2019-06-26T03:55:09.906Z,16.07
2019-06-26T03:57:42.019Z,14.78
2019-06-26T04:00:14.132Z,20.12
2019-06-26T04:02:47.485Z,14.30
2019-06-26T04:05:19.638Z,15.05
2019-06-26T04:07:51.842Z,11.03
2019-06-26T04:10:24.242Z,12.68
2019-06-26T04:12:56.468Z,9.48
2019-06-26T04:15:41.260Z,14.38
2019-06-26T04:18:04.047Z,14.98
2019-06-26T04:20:36.296Z,16.67
2019-06-26T04:23:08.738Z,12.73
2019-06-26T04:25:41.009Z,14.83
2019-06-26T04:28:13.290Z,15.95
2019-06-26T04:30:46.644Z,13.10
2019-06-26T04:33:18.776Z,11.80
2019-06-26T04:35:50.964Z,12.63
2019-06-26T04:38:23.284Z,15.88
2019-06-26T04:40:55.454Z,13.95
2019-06-26T04:43:27.679Z,16.62
2019-06-26T04:45:59.754Z,11.80
2019-06-26T04:48:31.918Z,16.93
2019-06-26T04:51:04.113Z,13.38
2019-06-26T04:53:36.179Z,8.48
2019-06-26T04:56:08.414Z,10.60
2019-06-26T04:58:40.561Z,12.53
2019-06-26T05:01:12.739Z,10.25
2019-06-26T05:03:45.349Z,16.62
2019-06-26T05:06:17.452Z,8.13
2019-06-26T05:08:49.579Z,11.12
2019-06-26T05:11:21.819Z,8.83
2019-06-26T05:13:53.905Z,9.50
2019-06-26T05:16:26.133Z,9.70
2019-06-26T05:18:58.386Z,13.08
2019-06-26T05:21:30.612Z,11.22
2019-06-26T05:24:02.826Z,10.98
2019-06-26T05:26:35.204Z,21.55
2019-06-26T05:29:07.546Z,9.88
2019-06-26T05:31:39.692Z,13.05
2019-06-26T05:34:11.906Z,7.83
2019-06-26T05:36:44.218Z,7.75
2019-06-26T05:39:16.396Z,9.08
2019-06-26T05:41:48.684Z,12.50
2019-06-26T05:44:20.920Z,10.05
2019-06-26T05:46:53.062Z,15.48
2019-06-26T05:49:25.231Z,10.08
2019-06-26T05:51:57.490Z,8.30
2019-06-26T05:54:29.680Z,10.50
2019-06-26T05:57:01.746Z,32.25
2019-06-26T05:59:34.835Z,14.07
2019-06-26T06:02:07.635Z,9.63
2019-06-26T06:04:39.697Z,10.80
2019-06-26T06:07:12.943Z,9.08
2019-06-26T06:09:45.048Z,11.30
2019-06-26T06:12:17.343Z,11.33
2019-06-26T06:14:49.593Z,8.95
2019-06-26T06:17:21.827Z,15.60
2019-06-26T06:19:54.083Z,12.75
2019-06-26T06:22:27.554Z,10.10
2019-06-26T06:25:00.783Z,8.80
2019-06-26T06:27:33.004Z,7.75
2019-06-26T06:30:09.151Z,7.60
2019-06-26T06:32:41.397Z,7.17
2019-06-26T06:35:15.004Z,9.43
2019-06-26T06:37:47.680Z,6.83
2019-06-26T06:40:20.270Z,8.88
2019-06-26T06:42:52.785Z,11.28
2019-06-26T06:45:25.362Z,6.15
2019-06-26T06:47:57.615Z,8.93
2019-06-26T06:50:30.009Z,18.52
2019-06-26T06:53:02.095Z,11.22
2019-06-26T06:55:34.218Z,10.70
2019-06-26T06:58:07.576Z,9.18
2019-06-26T07:00:39.936Z,21.50
2019-06-26T07:03:12.301Z,7.72
2019-06-26T07:05:44.425Z,6.03
2019-06-26T07:08:16.494Z,4.50
2019-06-26T07:10:49.403Z,7.90
2019-06-26T07:13:21.573Z,27.22
2019-06-26T07:15:53.711Z,11.35
2019-06-26T07:18:26.011Z,6.42
2019-06-26T07:21:02.671Z,27.42
2019-06-26T07:23:40.728Z,8.18
2019-06-26T07:26:13.478Z,7.47
2019-06-26T07:28:45.856Z,6.00
2019-06-26T07:31:18.099Z,6.35
2019-06-26T07:33:50.787Z,6.40
2019-06-26T07:36:22.919Z,7.20
2019-06-26T07:38:54.986Z,4.20
2019-06-26T07:41:27.379Z,70.08
2019-06-26T07:43:59.779Z,8.13
2019-06-26T07:46:31.980Z,7.05
2019-06-26T07:49:04.477Z,4.70
2019-06-26T07:51:38.630Z,6.00
2019-06-26T07:54:10.909Z,8.25
2019-06-26T07:56:44.092Z,10.35
2019-06-26T07:59:16.057Z,8.95
2019-06-26T08:01:48.110Z,7.15
2019-06-26T08:04:20.222Z,4.78
2019-06-26T08:06:52.341Z,6.10
2019-06-26T08:09:24.742Z,12.30
2019-06-26T08:11:56.911Z,6.75
2019-06-26T08:14:29.152Z,6.65
2019-06-26T08:17:08.667Z,6.28
2019-06-26T08:19:40.705Z,7.25
2019-06-26T08:22:12.870Z,6.70
2019-06-26T08:24:44.937Z,3.92
2019-06-26T08:27:17.132Z,4.42
2019-06-26T08:29:49.240Z,8.58
2019-06-26T08:32:21.341Z,23.77
2019-06-26T08:34:53.444Z,6.53
2019-06-26T08:37:25.787Z,7.47
2019-06-26T08:39:58.288Z,9.63
2019-06-26T08:42:30.863Z,8.58
2019-06-26T08:45:03.309Z,5.72
2019-06-26T08:47:35.776Z,9.63
2019-06-26T08:50:09.321Z,3.67
2019-06-26T08:52:41.772Z,6.33
2019-06-26T08:55:14.602Z,2.60
2019-06-26T08:57:47.143Z,5.30
2019-06-26T09:00:20.338Z,4.20
2019-06-26T09:02:56.566Z,23.52
2019-06-26T09:05:29.105Z,5.10
2019-06-26T09:08:01.600Z,7.83
2019-06-26T09:10:34.463Z,5.53
2019-06-26T09:13:07.023Z,4.03
2019-06-26T09:15:39.697Z,8.73
2019-06-26T09:18:12.155Z,5.40
2019-06-26T09:20:44.860Z,7.70
2019-06-26T09:23:17.431Z,5.00
2019-06-26T09:25:50.055Z,10.38
2019-06-26T09:28:22.602Z,7.45
2019-06-26T09:30:55.182Z,10.10
2019-06-26T09:33:32.135Z,4.10
2019-06-26T09:36:02.503Z,12.82
2019-06-26T09:38:34.949Z,12.95
2019-06-26T09:41:07.442Z,3.67
2019-06-26T09:43:39.991Z,9.70
2019-06-26T09:46:12.529Z,5.15
2019-06-26T09:48:52.643Z,10.45
2019-06-26T09:51:20.501Z,5.12
2019-06-26T09:53:53.113Z,7.10
2019-06-26T09:56:25.818Z,8.63
2019-06-26T09:58:58.697Z,8.23
2019-06-26T10:01:31.217Z,4.40
2019-06-26T10:04:03.705Z,9.45
2019-06-26T10:06:36.285Z,6.78
2019-06-26T10:09:09.368Z,5.08
2019-06-26T10:11:42.439Z,5.03
2019-06-26T10:14:14.959Z,5.28
2019-06-26T10:16:47.492Z,7.85
2019-06-26T10:19:19.986Z,6.65
2019-06-26T10:21:52.491Z,7.03
2019-06-26T10:24:24.998Z,3.70
2019-06-26T10:26:57.725Z,8.68
2019-06-26T10:29:30.197Z,7.67
2019-06-26T10:32:02.841Z,5.58
2019-06-26T10:34:35.485Z,3.67
2019-06-26T10:37:07.927Z,4.87
2019-06-26T10:39:40.420Z,11.95
2019-06-26T10:42:12.868Z,11.97
2019-06-26T10:44:45.351Z,8.43
2019-06-26T10:47:17.886Z,5.15
2019-06-26T10:49:50.415Z,4.28
2019-06-26T10:52:22.928Z,4.58
2019-06-26T10:54:55.361Z,7.83
2019-06-26T10:57:27.847Z,5.10
2019-06-26T11:00:00.325Z,4.65
2019-06-26T11:02:32.866Z,4.60
2019-06-26T11:05:07.867Z,6.58
2019-06-26T11:07:41.546Z,5.62
2019-06-26T11:10:15.736Z,7.78
2019-06-26T11:12:49.135Z,6.70
2019-06-26T11:15:21.857Z,7.00
2019-06-26T11:17:54.608Z,7.53
2019-06-26T11:20:27.077Z,6.80
2019-06-26T11:22:59.626Z,9.20
2019-06-26T11:25:32.166Z,5.20
2019-06-26T11:28:04.820Z,8.35
2019-06-26T11:30:37.274Z,7.05
2019-06-26T11:33:09.916Z,5.20
2019-06-26T11:35:42.710Z,5.50
2019-06-26T11:38:15.282Z,5.72
2019-06-26T11:40:47.803Z,4.75
2019-06-26T11:43:20.356Z,7.03
2019-06-26T11:45:52.879Z,6.03
2019-06-26T11:48:25.433Z,4.90
2019-06-26T11:50:58.357Z,5.53
2019-06-26T11:53:32.141Z,10.23
2019-06-26T11:56:05.041Z,14.60
2019-06-26T11:58:37.644Z,6.20
2019-06-26T12:01:10.227Z,3.62
2019-06-26T12:03:42.823Z,8.55
2019-06-26T12:06:31.728Z,3.83
2019-06-26T12:09:20.525Z,7.60
2019-06-26T12:11:53.063Z,7.53
2019-06-26T12:14:41.475Z,5.53
2019-06-26T12:17:14.192Z,9.55
2019-06-26T12:19:46.780Z,6.40
2019-06-26T12:22:19.246Z,7.45
2019-06-26T12:24:52.597Z,4.95
2019-06-26T12:27:41.504Z,9.33
2019-06-26T12:30:30.261Z,7.78
2019-06-26T12:33:18.688Z,3.67
2019-06-26T12:35:51.322Z,4.70
2019-06-26T12:38:23.891Z,7.67
2019-06-26T12:41:13.153Z,4.70
2019-06-26T12:43:45.652Z,6.35
2019-06-26T12:46:34.266Z,8.13
2019-06-26T12:49:06.896Z,10.38
2019-06-26T12:51:39.659Z,10.80
2019-06-26T12:57:00.223Z,6.30
2019-06-26T12:59:32.708Z,7.42
2019-06-26T13:02:21.207Z,7.37
2019-06-26T13:04:59.384Z,9.50
2019-06-26T13:07:31.900Z,7.40
2019-06-26T13:10:07.622Z,7.37
2019-06-26T13:12:40.449Z,7.28
2019-06-26T13:15:13.170Z,6.90
2019-06-26T13:17:45.724Z,6.42
2019-06-26T13:20:18.869Z,5.25
2019-06-26T13:22:51.380Z,7.30
2019-06-26T13:25:23.795Z,10.65
2019-06-26T13:27:56.415Z,11.73
2019-06-26T13:30:37.803Z,8.93
2019-06-26T13:33:10.286Z,5.03
2019-06-26T13:35:42.621Z,6.45
2019-06-26T13:38:14.998Z,6.92
2019-06-26T13:40:47.267Z,11.90
2019-06-26T13:43:20.599Z,9.00
2019-06-26T13:45:52.853Z,5.62
2019-06-26T13:48:25.014Z,8.33
2019-06-26T13:51:08.664Z,5.87
2019-06-26T13:53:32.660Z,15.63
2019-06-26T13:56:05.023Z,7.72
2019-06-26T13:58:37.093Z,8.68
2019-06-26T14:01:09.299Z,8.28
2019-06-26T14:03:41.461Z,7.42
2019-06-26T14:06:13.746Z,5.67
2019-06-26T14:08:45.900Z,12.00
2019-06-26T14:11:18.205Z,13.18
2019-06-26T14:13:52.528Z,37.75
2019-06-26T14:16:24.589Z,6.70
2019-06-26T14:18:56.809Z,8.50
2019-06-26T14:21:28.940Z,5.83
2019-06-26T14:24:01.274Z,7.03
2019-06-26T14:26:33.560Z,14.33
2019-06-26T14:29:19.964Z,11.83
2019-06-26T14:31:39.716Z,7.15
2019-06-26T14:37:01.047Z,6.92
2019-06-26T14:39:33.245Z,6.67
2019-06-26T14:42:05.355Z,4.90
2019-06-26T14:44:37.536Z,6.00
2019-06-26T14:47:09.911Z,8.88
2019-06-26T14:49:42.059Z,7.60
2019-06-26T14:52:14.274Z,7.17
2019-06-26T14:54:46.398Z,5.78
2019-06-26T14:57:18.667Z,7.33
2019-06-26T14:59:50.966Z,6.90
2019-06-26T15:02:23.408Z,9.28
2019-06-26T15:04:55.566Z,11.03
2019-06-26T15:07:27.752Z,5.78
2019-06-26T15:09:59.872Z,7.15
2019-06-26T15:12:32.021Z,4.17
2019-06-26T15:15:04.677Z,7.45
2019-06-26T15:17:46.241Z,7.78
2019-06-26T15:20:18.503Z,8.58
2019-06-26T15:22:50.838Z,5.28
2019-06-26T15:25:24.105Z,7.30
2019-06-26T15:27:56.078Z,3.92
2019-06-26T15:30:28.420Z,13.90
2019-06-26T15:33:00.681Z,11.68
2019-06-26T15:35:34.483Z,6.37
2019-06-26T15:38:06.752Z,6.90
2019-06-26T15:40:39.176Z,14.20
2019-06-26T15:43:11.357Z,11.70
2019-06-26T15:45:43.529Z,13.48
2019-06-26T15:48:16.621Z,18.67
2019-06-26T15:50:48.721Z,8.13
2019-06-26T15:53:20.792Z,6.20
2019-06-26T15:55:52.901Z,7.45
2019-06-26T15:58:25.054Z,9.40
2019-06-26T16:00:57.794Z,13.50
2019-06-26T16:03:29.873Z,9.85
2019-06-26T16:06:04.705Z,9.58
2019-06-26T16:08:37.815Z,12.15
2019-06-26T16:11:09.968Z,4.53
2019-06-26T16:13:42.333Z,13.62
2019-06-26T16:16:14.589Z,7.62
2019-06-26T16:18:48.403Z,7.45
2019-06-26T16:21:20.783Z,9.35
2019-06-26T16:23:53.044Z,9.00
2019-06-26T16:26:25.362Z,6.37
2019-06-26T16:28:57.692Z,9.43
2019-06-26T16:31:30.202Z,8.38
2019-06-26T16:34:02.333Z,6.53
2019-06-26T16:36:34.659Z,7.00
2019-06-26T16:39:08.308Z,7.22
2019-06-26T16:41:40.862Z,7.53
2019-06-26T16:44:13.165Z,10.60
2019-06-26T16:46:45.416Z,10.13
2019-06-26T16:49:17.619Z,7.87
2019-06-26T16:51:49.723Z,17.67
2019-06-26T16:54:22.151Z,12.15
2019-06-26T16:56:55.263Z,15.68
2019-06-26T16:59:27.573Z,19.30
2019-06-26T17:02:00.041Z,23.32
2019-06-26T17:04:32.220Z,14.07
2019-06-26T17:07:04.348Z,21.40
2019-06-26T17:09:36.500Z,15.63
2019-06-26T17:12:08.708Z,16.23
2019-06-26T17:14:40.761Z,15.85
2019-06-26T17:17:13.112Z,30.48
2019-06-26T17:19:45.294Z,30.35
2019-06-26T17:22:17.451Z,20.27
2019-06-26T17:24:49.691Z,15.83
2019-06-26T17:27:21.901Z,36.35
2019-06-26T17:29:54.039Z,45.73
2019-06-26T17:32:26.539Z,20.80
2019-06-26T17:34:59.752Z,11.97
2019-06-26T17:37:32.038Z,11.70
2019-06-26T17:40:05.100Z,11.20
2019-06-26T17:42:37.425Z,15.85
2019-06-26T17:45:10.101Z,7.95
2019-06-26T17:47:42.310Z,11.63
2019-06-26T17:50:14.731Z,8.28
2019-06-26T17:52:48.751Z,10.28
2019-06-26T17:55:20.956Z,11.05
2019-06-26T17:57:53.037Z,8.33
2019-06-26T18:00:28.361Z,13.83
2019-06-26T18:03:01.826Z,9.35
2019-06-26T18:05:34.907Z,18.62
2019-06-26T18:08:07.246Z,14.68
2019-06-26T18:10:42.498Z,12.82
2019-06-26T18:13:14.724Z,7.33
2019-06-26T18:15:46.920Z,6.55
2019-06-26T18:18:19.233Z,12.68
2019-06-26T18:20:51.443Z,13.13
2019-06-26T18:23:36.758Z,15.43
2019-06-26T18:26:11.899Z,13.95
2019-06-26T18:28:31.658Z,11.45
2019-06-26T18:31:04.015Z,11.68
2019-06-26T18:33:36.277Z,11.53
2019-06-26T18:36:08.628Z,19.42
2019-06-26T18:38:40.783Z,13.45
2019-06-26T18:41:13.007Z,18.87
2019-06-26T18:43:45.341Z,13.58
2019-06-26T18:46:17.818Z,19.00
2019-06-26T18:48:50.986Z,20.75
2019-06-26T18:51:23.938Z,20.37
2019-06-26T18:53:56.120Z,19.62
2019-06-26T18:56:28.582Z,17.48
2019-06-26T18:59:00.965Z,12.45
2019-06-26T19:01:33.431Z,15.48
2019-06-26T19:04:06.811Z,15.53
2019-06-26T19:06:39.142Z,16.15
2019-06-26T19:09:11.561Z,18.92
2019-06-26T19:11:43.860Z,20.10
2019-06-26T19:14:16.225Z,18.17
2019-06-26T19:16:55.398Z,26.90
2019-06-26T19:19:28.099Z,23.02
2019-06-26T19:22:00.412Z,41.05
2019-06-26T19:24:32.794Z,26.05
2019-06-26T19:27:07.526Z,25.30
2019-06-26T19:29:38.878Z,27.62
2019-06-26T19:32:11.088Z,20.77
2019-06-26T19:34:44.350Z,21.07
2019-06-26T19:37:17.945Z,23.75
2019-06-26T19:39:51.161Z,24.43
2019-06-26T19:42:24.379Z,20.72
2019-06-26T19:44:56.647Z,23.20
2019-06-26T19:47:28.867Z,16.87
2019-06-26T19:50:01.032Z,19.45
2019-06-26T19:52:33.294Z,18.57
2019-06-26T19:55:08.270Z,25.40
2019-06-26T19:57:40.616Z,19.12
2019-06-26T20:00:13.119Z,17.35
2019-06-26T20:02:45.353Z,22.42
2019-06-26T20:05:17.567Z,22.45
2019-06-26T20:07:51.754Z,20.08
2019-06-26T20:10:24.033Z,13.05
2019-06-26T20:12:56.121Z,14.35
2019-06-26T20:15:28.316Z,16.30
2019-06-26T20:18:03.954Z,20.48
2019-06-26T20:20:34.296Z,20.97
2019-06-26T20:23:06.580Z,19.73
2019-06-26T20:25:38.879Z,13.62
2019-06-26T20:28:10.961Z,16.10
2019-06-26T20:30:43.324Z,15.23
2019-06-26T20:33:15.552Z,15.43
2019-06-26T20:35:47.732Z,21.87
2019-06-26T20:38:19.816Z,13.65
2019-06-26T20:40:52.009Z,20.08
2019-06-26T20:43:24.341Z,18.35
2019-06-26T20:45:56.624Z,15.15
2019-06-26T20:48:28.826Z,15.93
2019-06-26T20:51:00.922Z,19.55
2019-06-26T20:53:34.266Z,14.70
2019-06-26T20:56:07.471Z,26.33
2019-06-26T20:58:39.657Z,18.27
2019-06-26T21:01:12.137Z,22.37
2019-06-26T21:03:44.237Z,29.80
2019-06-26T21:06:19.691Z,23.20
2019-06-26T21:08:52.006Z,26.68
2019-06-26T21:11:24.231Z,28.47
2019-06-26T21:13:56.732Z,29.60
2019-06-26T21:16:29.146Z,26.55
2019-06-26T21:19:01.346Z,23.32
2019-06-26T21:21:33.423Z,23.70
2019-06-26T21:24:05.511Z,29.92
2019-06-26T21:26:37.733Z,32.20
2019-06-26T21:29:09.989Z,35.28
2019-06-26T21:31:42.110Z,30.45
2019-06-26T21:34:15.353Z,29.63
2019-06-26T21:36:47.685Z,29.82
2019-06-26T21:39:20.094Z,33.90
2019-06-26T21:41:52.375Z,30.05
2019-06-26T21:44:24.873Z,30.97
2019-06-26T21:46:57.372Z,30.68
2019-06-26T21:49:29.482Z,32.40
2019-06-26T21:52:01.766Z,31.33
2019-06-26T21:54:33.821Z,29.98
2019-06-26T21:57:24.087Z,28.83
2019-06-26T22:00:15.552Z,28.92
2019-06-26T22:03:06.184Z,25.97
2019-06-26T22:05:40.298Z,34.58
2019-06-26T22:08:27.283Z,32.78
2019-06-26T22:11:01.126Z,31.05
2019-06-26T22:13:33.552Z,30.30
2019-06-26T22:16:06.838Z,32.75
2019-06-26T22:18:39.076Z,31.57
2019-06-26T22:21:11.342Z,34.63
2019-06-26T22:23:43.539Z,34.65
2019-06-26T22:26:15.650Z,34.20
2019-06-26T22:28:49.306Z,36.88
2019-06-26T22:31:21.626Z,43.13
2019-06-26T22:33:53.702Z,31.07
2019-06-26T22:36:25.827Z,31.27
2019-06-26T22:38:58.285Z,37.95
2019-06-26T22:41:30.558Z,34.33
2019-06-26T22:44:02.760Z,38.73
2019-06-26T22:46:35.011Z,43.15
2019-06-26T22:49:07.403Z,35.90
2019-06-26T22:51:39.878Z,37.05
2019-06-26T22:54:12.153Z,38.75
2019-06-26T22:56:44.578Z,49.13
2019-06-26T22:59:16.971Z,42.73
2019-06-26T23:01:49.071Z,62.20
2019-06-26T23:04:21.388Z,46.42
2019-06-26T23:06:55.176Z,56.68
2019-06-26T23:09:27.320Z,76.65
2019-06-26T23:12:00.596Z,73.15
2019-06-26T23:14:32.877Z,68.92
2019-06-26T23:17:04.978Z,88.37
2019-06-26T23:19:37.330Z,57.98
2019-06-26T23:22:09.390Z,58.52
2019-06-26T23:24:41.710Z,59.75
2019-06-26T23:27:13.847Z,67.80
2019-06-26T23:29:46.071Z,67.20
2019-06-26T23:32:18.363Z,71.80
2019-06-26T23:34:50.467Z,76.92
2019-06-26T23:37:22.606Z,86.12
2019-06-26T23:39:54.690Z,80.80
2019-06-26T23:42:26.767Z,73.25
2019-06-26T23:44:59.451Z,79.53
2019-06-26T23:47:31.408Z,81.95
2019-06-26T23:50:04.649Z,64.15
2019-06-26T23:52:36.719Z,69.87
2019-06-26T23:55:08.798Z,71.02
2019-06-26T23:57:57.924Z,63.20
